createdAt,value
2023-04-13T00:01:50.847Z,98631.16
2023-04-13T00:04:19.223Z,98636.21
2023-04-13T00:06:50.418Z,98638.02
2023-04-13T00:09:20.088Z,98639.29
2023-04-13T00:11:49.192Z,98643.32
2023-04-13T00:14:19.022Z,98651.29
2023-04-13T00:16:54.400Z,98653.70
2023-04-13T00:19:24.450Z,98655.11
2023-04-13T00:21:55.467Z,98659.75
2023-04-13T00:24:24.327Z,98660.36
2023-04-13T00:26:54.638Z,98658.39
2023-04-13T00:29:23.578Z,98660.41
2023-04-13T00:31:51.733Z,98660.61
2023-04-13T00:34:19.862Z,98660.70
2023-04-13T00:36:49.432Z,98660.27
2023-04-13T00:39:23.117Z,98661.88
2023-04-13T00:41:53.190Z,98657.00
2023-04-13T00:44:21.772Z,98655.05
2023-04-13T00:46:51.123Z,98649.61
2023-04-13T00:49:22.456Z,98655.65
2023-04-13T00:51:51.029Z,98655.14
2023-04-13T00:54:19.232Z,98653.27
2023-04-13T00:56:48.707Z,98649.50
2023-04-13T00:59:17.612Z,98645.56
2023-04-13T01:01:50.925Z,98645.25
2023-04-13T01:04:20.421Z,98637.92
2023-04-13T01:06:54.130Z,98632.83
2023-04-13T01:09:32.503Z,98626.08
2023-04-13T01:12:29.411Z,98629.23
2023-04-13T01:15:06.201Z,98637.45
2023-04-13T01:17:34.564Z,98636.91
2023-04-13T01:20:14.407Z,98631.04
2023-04-13T01:22:47.080Z,98629.90
2023-04-13T01:25:18.640Z,98633.48
2023-04-13T01:28:13.644Z,98637.99
2023-04-13T01:30:42.662Z,98643.84
2023-04-13T01:33:11.464Z,98638.30
2023-04-13T01:35:40.180Z,98635.73
2023-04-13T01:38:10.176Z,98636.79
2023-04-13T01:40:41.372Z,98647.34
2023-04-13T01:43:11.320Z,98641.20
2023-04-13T01:46:01.951Z,98632.86
2023-04-13T01:48:40.523Z,98636.23
2023-04-13T01:51:23.195Z,98641.67
2023-04-13T01:54:02.654Z,98636.03
2023-04-13T01:56:39.652Z,98624.13
2023-04-13T01:59:09.566Z,98624.92
2023-04-13T02:01:43.724Z,98629.17
2023-04-13T02:04:14.963Z,98630.39
2023-04-13T02:06:46.898Z,98630.99
2023-04-13T02:09:15.652Z,98634.56
2023-04-13T02:11:47.579Z,98645.17
2023-04-13T02:14:18.888Z,98648.95
2023-04-13T02:16:50.085Z,98642.37
2023-04-13T02:19:18.365Z,98640.81
2023-04-13T02:21:46.496Z,98639.67
2023-04-13T02:24:17.226Z,98643.19
2023-04-13T02:26:47.716Z,98642.73
2023-04-13T02:29:16.561Z,98643.08
2023-04-13T02:31:54.388Z,98644.14
2023-04-13T02:34:23.234Z,98636.68
2023-04-13T02:36:51.644Z,98636.73
2023-04-13T02:39:27.082Z,98634.54
2023-04-13T02:41:58.004Z,98632.16
2023-04-13T02:44:27.271Z,98632.52
2023-04-13T02:46:58.278Z,98635.08
2023-04-13T02:49:26.510Z,98635.30
2023-04-13T02:52:12.336Z,98642.85
2023-04-13T02:54:46.841Z,98648.52
2023-04-13T02:57:15.366Z,98650.73
2023-04-13T02:59:43.921Z,98652.78
2023-04-13T03:02:15.474Z,98655.59
2023-04-13T03:04:44.607Z,98656.19
2023-04-13T03:07:14.644Z,98656.12
2023-04-13T03:09:45.002Z,98656.31
2023-04-13T03:12:14.998Z,98655.13
2023-04-13T03:14:44.381Z,98654.36
2023-04-13T03:17:13.037Z,98650.60
2023-04-13T03:19:46.622Z,98658.30
2023-04-13T03:22:16.052Z,98663.48
2023-04-13T03:24:47.404Z,98664.27
2023-04-13T03:27:22.931Z,98666.10
2023-04-13T03:29:52.157Z,98671.77
2023-04-13T03:32:23.407Z,98681.95
2023-04-13T03:34:58.614Z,98684.30
2023-04-13T03:37:30.313Z,98685.73
2023-04-13T03:40:01.548Z,98686.26
2023-04-13T03:42:32.187Z,98684.19
2023-04-13T03:45:00.933Z,98684.46
2023-04-13T03:47:30.016Z,98684.29
2023-04-13T03:49:58.527Z,98683.40
2023-04-13T03:52:28.353Z,98683.55
2023-04-13T03:55:00.563Z,98684.27
2023-04-13T03:57:33.825Z,98682.80
2023-04-13T04:00:03.718Z,98680.77
2023-04-13T04:02:57.398Z,98680.43
2023-04-13T04:05:30.811Z,98683.98
2023-04-13T04:08:02.539Z,98682.83
2023-04-13T04:10:31.285Z,98679.45
2023-04-13T04:12:59.939Z,98684.89
2023-04-13T04:15:31.599Z,98687.37
2023-04-13T04:18:04.501Z,98687.83
2023-04-13T04:20:33.608Z,98691.03
2023-04-13T04:23:04.930Z,98695.95
2023-04-13T04:25:40.798Z,98696.98
2023-04-13T04:28:09.375Z,98703.95
2023-04-13T04:30:37.621Z,98703.73
2023-04-13T04:33:10.712Z,98704.79
2023-04-13T04:35:50.158Z,98701.48
2023-04-13T04:38:24.488Z,98711.46
2023-04-13T04:40:57.939Z,98717.65
2023-04-13T04:43:27.342Z,98723.84
2023-04-13T04:45:59.286Z,98721.67
2023-04-13T04:48:31.901Z,98724.60
2023-04-13T04:51:08.693Z,98723.42
2023-04-13T04:53:38.337Z,98720.90
2023-04-13T04:56:07.401Z,98717.38
2023-04-13T04:58:51.766Z,98713.98
2023-04-13T05:01:26.511Z,98708.73
2023-04-13T05:04:01.823Z,98704.81
2023-04-13T05:06:34.409Z,98701.16
2023-04-13T05:09:06.439Z,98708.41
2023-04-13T05:11:36.712Z,98715.14
2023-04-13T05:14:06.276Z,98713.48
2023-04-13T05:16:36.120Z,98705.63
2023-04-13T05:19:12.748Z,98703.50
2023-04-13T05:22:09.767Z,98696.57
2023-04-13T05:24:41.878Z,98696.64
2023-04-13T05:27:13.727Z,98698.86
2023-04-13T05:29:47.985Z,98702.36
2023-04-13T05:32:19.181Z,98701.23
2023-04-13T05:34:48.738Z,98702.20
2023-04-13T05:37:25.235Z,98711.98
2023-04-13T05:39:53.878Z,98716.39
2023-04-13T05:42:25.348Z,98719.47
2023-04-13T05:44:53.754Z,98713.17
2023-04-13T05:47:22.439Z,98714.67
2023-04-13T05:49:52.425Z,98716.50
2023-04-13T05:52:23.072Z,98718.64
2023-04-13T05:54:51.692Z,98716.09
2023-04-13T05:57:23.040Z,98716.83
2023-04-13T05:59:53.513Z,98718.36
2023-04-13T06:02:26.544Z,98722.63
2023-04-13T06:04:56.593Z,98727.00
2023-04-13T06:07:26.214Z,98722.79
2023-04-13T06:09:54.446Z,98729.17
2023-04-13T06:12:32.542Z,98731.44
2023-04-13T06:15:02.470Z,98733.89
2023-04-13T06:17:31.310Z,98732.80
2023-04-13T06:19:59.443Z,98733.95
2023-04-13T06:22:31.025Z,98733.86
2023-04-13T06:24:59.602Z,98732.31
2023-04-13T06:27:34.907Z,98732.52
2023-04-13T06:30:07.596Z,98729.38
2023-04-13T06:32:37.669Z,98735.71
2023-04-13T06:35:11.428Z,98734.00
2023-04-13T06:37:45.605Z,98734.36
2023-04-13T06:40:17.997Z,98737.46
2023-04-13T06:42:53.763Z,98740.80
2023-04-13T06:45:42.519Z,98737.12
2023-04-13T06:48:13.158Z,98738.41
2023-04-13T06:50:42.486Z,98743.10
2023-04-13T06:53:11.202Z,98745.63
2023-04-13T06:55:39.449Z,98749.20
2023-04-13T06:58:07.926Z,98756.02
2023-04-13T07:00:36.197Z,98756.95
2023-04-13T07:03:04.782Z,98754.95
2023-04-13T07:05:34.075Z,98756.17
2023-04-13T07:08:06.701Z,98761.96
2023-04-13T07:10:39.279Z,98754.42
2023-04-13T07:13:09.554Z,98752.73
2023-04-13T07:15:38.867Z,98753.79
2023-04-13T07:18:07.344Z,98758.77
2023-04-13T07:20:36.529Z,98756.66
2023-04-13T07:23:05.455Z,98755.03
2023-04-13T07:25:37.394Z,98756.41
2023-04-13T07:28:06.478Z,98766.23
2023-04-13T07:30:34.653Z,98766.74
2023-04-13T07:33:03.574Z,98766.44
2023-04-13T07:35:32.861Z,98763.70
2023-04-13T07:38:01.650Z,98763.38
2023-04-13T07:40:29.880Z,98755.90
2023-04-13T07:42:58.863Z,98750.20
2023-04-13T07:45:31.541Z,98754.65
2023-04-13T07:48:00.928Z,98753.73
2023-04-13T07:50:30.040Z,98751.92
2023-04-13T07:52:58.915Z,98752.79
2023-04-13T07:55:27.922Z,98758.34
2023-04-13T07:58:00.008Z,98760.20
2023-04-13T08:00:28.453Z,98764.27
2023-04-13T08:02:58.527Z,98770.48
2023-04-13T08:05:31.778Z,98770.77
2023-04-13T08:08:00.586Z,98779.31
2023-04-13T08:13:02.107Z,98781.04
2023-04-13T08:15:33.253Z,98782.58
2023-04-13T08:18:03.941Z,98787.17
2023-04-13T08:20:33.950Z,98792.21
2023-04-13T08:23:07.060Z,98795.70
2023-04-13T08:25:39.995Z,98795.17
2023-04-13T08:28:09.756Z,98793.52
2023-04-13T08:30:43.627Z,98791.40
2023-04-13T08:33:14.387Z,98790.70
2023-04-13T08:35:42.655Z,98789.63
2023-04-13T08:38:14.705Z,98787.84
2023-04-13T08:40:50.007Z,98785.59
2023-04-13T08:43:21.926Z,98784.35
2023-04-13T08:45:51.865Z,98788.66
2023-04-13T08:48:23.181Z,98790.08
2023-04-13T08:50:52.453Z,98791.71
2023-04-13T08:53:24.313Z,98794.96
2023-04-13T08:55:55.239Z,98795.98
2023-04-13T08:58:24.633Z,98794.86
2023-04-13T09:00:56.680Z,98790.52
2023-04-13T09:03:29.901Z,98788.02
2023-04-13T09:06:01.716Z,98784.31
2023-04-13T09:08:35.865Z,98789.53
2023-04-13T09:11:05.621Z,98784.83
2023-04-13T09:13:34.610Z,98784.52
2023-04-13T09:16:03.911Z,98781.29
2023-04-13T09:18:53.262Z,98782.45
2023-04-13T09:21:35.752Z,98790.13
2023-04-13T09:24:05.236Z,98789.71
2023-04-13T09:26:42.088Z,98788.20
2023-04-13T09:29:19.146Z,98793.32
2023-04-13T09:31:48.689Z,98791.05
2023-04-13T09:34:29.596Z,98790.10
2023-04-13T09:37:00.307Z,98793.04
2023-04-13T09:39:30.960Z,98791.99
2023-04-13T09:41:59.507Z,98788.20
2023-04-13T09:44:36.175Z,98789.41
2023-04-13T09:47:07.036Z,98791.05
2023-04-13T09:49:38.774Z,98792.17
2023-04-13T09:52:23.137Z,98791.48
2023-04-13T09:54:57.409Z,98794.91
2023-04-13T09:57:30.412Z,98797.70
2023-04-13T10:00:07.258Z,98799.59
2023-04-13T10:02:43.006Z,98803.10
2023-04-13T10:05:12.524Z,98803.64
2023-04-13T10:07:45.935Z,98805.19
2023-04-13T10:10:15.455Z,98801.27
2023-04-13T10:12:49.742Z,98805.23
2023-04-13T10:15:45.677Z,98805.33
2023-04-13T10:18:19.840Z,98807.69
2023-04-13T10:20:48.857Z,98805.06
2023-04-13T10:23:17.128Z,98808.77
2023-04-13T10:25:52.332Z,98808.84
2023-04-13T10:28:26.243Z,98811.80
2023-04-13T10:34:55.603Z,98814.39
2023-04-13T10:37:25.313Z,98819.80
2023-04-13T10:40:08.030Z,98818.48
2023-04-13T10:45:27.949Z,98822.01
2023-04-13T10:47:58.702Z,98814.95
2023-04-13T10:50:29.548Z,98812.94
2023-04-13T10:53:05.676Z,98812.44
2023-04-13T10:55:34.577Z,98809.93
2023-04-13T10:58:03.568Z,98812.80
2023-04-13T11:00:45.733Z,98817.13
2023-04-13T11:03:16.724Z,98819.48
2023-04-13T11:05:57.814Z,98819.05
2023-04-13T11:08:28.112Z,98821.13
2023-04-13T11:10:57.440Z,98825.02
2023-04-13T11:13:25.682Z,98829.33
2023-04-13T11:16:04.897Z,98830.88
2023-04-13T11:18:34.229Z,98838.31
2023-04-13T11:21:06.004Z,98845.39
2023-04-13T11:23:36.195Z,98843.94
2023-04-13T11:26:05.473Z,98844.76
2023-04-13T11:28:40.192Z,98837.76
2023-04-13T11:31:08.610Z,98838.48
2023-04-13T11:33:40.050Z,98833.77
2023-04-13T11:36:09.903Z,98836.91
2023-04-13T11:38:40.931Z,98840.00
2023-04-13T11:41:16.309Z,98835.48
2023-04-13T11:43:46.582Z,98837.41
2023-04-13T11:46:16.302Z,98839.67
2023-04-13T11:48:44.729Z,98840.64
2023-04-13T11:51:13.072Z,98845.58
2023-04-13T11:53:41.111Z,98846.79
2023-04-13T11:56:09.196Z,98846.50
2023-04-13T11:58:38.612Z,98846.05
2023-04-13T12:03:56.928Z,98842.50
2023-04-13T12:06:30.057Z,98847.61
2023-04-13T12:09:09.023Z,98850.47
2023-04-13T12:11:43.885Z,98846.46
2023-04-13T12:17:04.531Z,98846.88
2023-04-13T12:19:43.624Z,98844.96
2023-04-13T12:22:12.283Z,98842.05
2023-04-13T12:24:42.599Z,98845.98
2023-04-13T12:27:20.454Z,98848.46
2023-04-13T12:29:51.593Z,98854.76
2023-04-13T12:32:20.015Z,98856.66
2023-04-13T12:34:48.956Z,98862.07
2023-04-13T12:37:16.943Z,98859.77
2023-04-13T12:39:45.086Z,98862.77
2023-04-13T12:42:13.475Z,98852.43
2023-04-13T12:44:47.472Z,98854.20
2023-04-13T12:47:15.815Z,98856.59
2023-04-13T12:49:44.395Z,98857.96
2023-04-13T12:52:13.325Z,98864.75
2023-04-13T12:54:41.520Z,98867.05
2023-04-13T12:57:09.794Z,98862.92
2023-04-13T12:59:38.330Z,98861.63
2023-04-13T13:02:06.502Z,98855.91
2023-04-13T13:04:35.539Z,98855.91
2023-04-13T13:07:04.500Z,98856.89
2023-04-13T13:09:33.030Z,98862.42
2023-04-13T13:12:02.833Z,98860.86
2023-04-13T13:14:31.442Z,98865.26
2023-04-13T13:17:00.890Z,98858.64
2023-04-13T13:19:31.854Z,98860.99
2023-04-13T13:22:01.450Z,98865.00
2023-04-13T13:24:30.152Z,98874.66
2023-04-13T13:29:33.466Z,98874.08
2023-04-13T13:32:06.737Z,98879.28
2023-04-13T13:34:36.180Z,98878.57
2023-04-13T13:37:04.340Z,98878.86
2023-04-13T13:39:35.769Z,98882.00
2023-04-13T13:42:05.060Z,98884.81
2023-04-13T13:44:35.001Z,98885.30
2023-04-13T13:47:04.558Z,98885.95
2023-04-13T13:49:33.545Z,98888.13
2023-04-13T13:52:09.631Z,98887.86
2023-04-13T13:54:46.073Z,98893.17
2023-04-13T13:57:14.106Z,98896.92
2023-04-13T13:59:42.968Z,98892.87
2023-04-13T14:02:11.387Z,98895.61
2023-04-13T14:04:39.791Z,98894.34
2023-04-13T14:07:08.764Z,98894.48
2023-04-13T14:09:37.931Z,98892.09
2023-04-13T14:12:06.376Z,98895.51
2023-04-13T14:14:34.534Z,98893.11
2023-04-13T14:17:07.327Z,98898.27
2023-04-13T14:19:36.297Z,98903.05
2023-04-13T14:22:04.383Z,98905.74
2023-04-13T14:24:38.016Z,98903.20
2023-04-13T14:27:06.924Z,98903.42
2023-04-13T14:29:34.965Z,98901.90
2023-04-13T14:32:08.599Z,98908.69
2023-04-13T14:34:37.078Z,98912.04
2023-04-13T14:37:05.284Z,98914.42
2023-04-13T14:39:36.712Z,98916.95
2023-04-13T14:42:05.053Z,98919.23
2023-04-13T14:44:36.687Z,98922.96
2023-04-13T14:47:11.069Z,98922.50
2023-04-13T14:49:39.846Z,98929.35
2023-04-13T14:52:30.727Z,98926.97
2023-04-13T14:55:02.040Z,98929.73
2023-04-13T14:57:31.520Z,98927.20
2023-04-13T14:59:59.695Z,98936.95
2023-04-13T15:02:29.688Z,98935.78
2023-04-13T15:04:58.382Z,98935.61
2023-04-13T15:07:29.721Z,98936.19
2023-04-13T15:09:59.006Z,98938.86
2023-04-13T15:12:27.592Z,98945.27
2023-04-13T15:14:58.398Z,98948.46
2023-04-13T15:17:26.566Z,98951.77
2023-04-13T15:19:56.323Z,98952.54
2023-04-13T15:22:24.946Z,98955.53
2023-04-13T15:24:53.201Z,98961.14
2023-04-13T15:27:23.021Z,98956.95
2023-04-13T15:29:52.368Z,98958.98
2023-04-13T15:32:20.849Z,98958.61
2023-04-13T15:34:49.768Z,98958.65
2023-04-13T15:37:18.509Z,98962.54
2023-04-13T15:39:46.766Z,98965.81
2023-04-13T15:42:15.094Z,98965.53
2023-04-13T15:44:43.132Z,98965.08
2023-04-13T15:47:11.206Z,98966.89
2023-04-13T15:49:41.274Z,98967.77
2023-04-13T15:52:09.292Z,98967.23
2023-04-13T15:54:37.524Z,98972.48
2023-04-13T15:57:06.914Z,98972.83
2023-04-13T15:59:38.674Z,98981.82
2023-04-13T16:02:07.840Z,98984.08
2023-04-13T16:04:36.843Z,98988.30
2023-04-13T16:07:13.850Z,98982.48
2023-04-13T16:09:43.841Z,98988.39
2023-04-13T16:12:12.137Z,98991.44
2023-04-13T16:14:45.563Z,98991.18
2023-04-13T16:17:18.733Z,98995.79
2023-04-13T16:19:50.940Z,98996.09
2023-04-13T16:22:19.619Z,98996.27
2023-04-13T16:24:49.842Z,98996.91
2023-04-13T16:27:18.131Z,99001.18
2023-04-13T16:29:46.395Z,99001.75
2023-04-13T16:32:20.196Z,99001.36
2023-04-13T16:34:49.100Z,99004.56
2023-04-13T16:37:17.381Z,99004.29
2023-04-13T16:39:47.080Z,99007.64
2023-04-13T16:42:17.612Z,99008.24
2023-04-13T16:44:45.721Z,99009.95
2023-04-13T16:47:15.796Z,99009.30
2023-04-13T16:49:45.548Z,99013.09
2023-04-13T16:52:13.910Z,99018.39
2023-04-13T16:54:44.993Z,99017.35
2023-04-13T16:57:13.465Z,99018.59
2023-04-13T16:59:41.688Z,99020.94
2023-04-13T17:02:24.286Z,99018.54
2023-04-13T17:04:58.078Z,99022.02
2023-04-13T17:07:29.778Z,99025.12
2023-04-13T17:10:18.666Z,99030.90
2023-04-13T17:12:48.246Z,99035.64
2023-04-13T17:15:20.684Z,99035.20
2023-04-13T17:17:54.011Z,99036.61
2023-04-13T17:20:22.607Z,99036.70
2023-04-13T17:22:51.185Z,99039.30
2023-04-13T17:25:19.641Z,99040.30
2023-04-13T17:27:48.799Z,99046.77
2023-04-13T17:30:18.144Z,99047.82
2023-04-13T17:32:58.743Z,99052.29
2023-04-13T17:35:28.103Z,99049.02
2023-04-13T17:37:56.369Z,99053.36
2023-04-13T17:40:31.485Z,99057.26
2023-04-13T17:42:59.933Z,99054.56
2023-04-13T17:45:28.244Z,99054.11
2023-04-13T17:48:02.559Z,99060.55
2023-04-13T17:50:31.868Z,99058.83
2023-04-13T17:53:04.503Z,99057.55
2023-04-13T17:55:36.921Z,99063.54
2023-04-13T17:58:05.846Z,99064.09
2023-04-13T18:00:33.950Z,99068.14
2023-04-13T18:03:05.349Z,99070.92
2023-04-13T18:05:35.410Z,99078.09
2023-04-13T18:08:03.782Z,99078.15
2023-04-13T18:10:33.743Z,99079.12
2023-04-13T18:13:07.741Z,99080.34
2023-04-13T18:15:39.611Z,99082.30
2023-04-13T18:18:07.923Z,99083.41
2023-04-13T18:20:42.365Z,99087.84
2023-04-13T18:23:11.293Z,99085.94
2023-04-13T18:25:40.050Z,99089.88
2023-04-13T18:28:08.160Z,99085.14
2023-04-13T18:30:36.617Z,99085.46
2023-04-13T18:33:05.330Z,99085.61
2023-04-13T18:35:33.612Z,99087.61
2023-04-13T18:38:06.843Z,99085.36
2023-04-13T18:40:35.873Z,99084.98
2023-04-13T18:43:03.980Z,99090.01
2023-04-13T18:45:32.239Z,99091.67
2023-04-13T18:48:00.743Z,99091.74
2023-04-13T18:50:29.468Z,99092.52
2023-04-13T18:53:00.450Z,99088.15
2023-04-13T18:55:30.484Z,99089.61
2023-04-13T18:57:59.116Z,99092.23
2023-04-13T19:00:27.350Z,99095.42
2023-04-13T19:02:57.635Z,99087.41
2023-04-13T19:05:26.584Z,99091.84
2023-04-13T19:07:58.534Z,99090.31
2023-04-13T19:10:28.345Z,99087.35
2023-04-13T19:12:56.744Z,99092.77
2023-04-13T19:15:25.621Z,99089.16
2023-04-13T19:17:54.443Z,99093.42
2023-04-13T19:20:24.124Z,99090.55
2023-04-13T19:22:52.203Z,99092.11
2023-04-13T19:25:27.683Z,99091.30
2023-04-13T19:27:56.688Z,99091.50
2023-04-13T19:30:25.035Z,99096.00
2023-04-13T19:32:59.339Z,99098.45
2023-04-13T19:35:28.755Z,99097.47
2023-04-13T19:37:57.430Z,99098.79
2023-04-13T19:40:32.709Z,99101.04
2023-04-13T19:43:01.771Z,99101.88
2023-04-13T19:45:30.978Z,99102.55
2023-04-13T19:47:59.322Z,99103.11
2023-04-13T19:50:27.736Z,99105.23
2023-04-13T19:52:58.344Z,99105.17
2023-04-13T19:55:27.310Z,99106.90
2023-04-13T19:57:55.555Z,99106.60
2023-04-13T20:00:24.942Z,99107.40
2023-04-13T20:03:02.785Z,99107.67
2023-04-13T20:05:31.518Z,99112.52
2023-04-13T20:07:59.570Z,99115.35
2023-04-13T20:10:28.060Z,99118.82
2023-04-13T20:12:57.309Z,99120.64
2023-04-13T20:15:25.475Z,99120.30
2023-04-13T20:17:54.709Z,99118.30
2023-04-13T20:20:24.558Z,99113.63
2023-04-13T20:22:52.647Z,99116.39
2023-04-13T20:25:20.886Z,99118.83
2023-04-13T20:27:49.392Z,99115.70
2023-04-13T20:31:08.461Z,99112.21
2023-04-13T20:33:38.419Z,99107.63
2023-04-13T20:36:06.860Z,99106.52
2023-04-13T20:38:36.507Z,99103.94
2023-04-13T20:41:04.785Z,99106.84
2023-04-13T20:43:34.601Z,99111.33
2023-04-13T20:46:03.780Z,99112.30
2023-04-13T20:51:09.865Z,99113.66
2023-04-13T20:53:38.775Z,99111.95
2023-04-13T20:56:07.782Z,99109.48
2023-04-13T20:58:37.649Z,99114.65
2023-04-13T21:01:05.924Z,99112.27
2023-04-13T21:03:38.645Z,99110.66
2023-04-13T21:06:07.849Z,99112.59
2023-04-13T21:08:36.514Z,99116.54
2023-04-13T21:11:05.188Z,99119.15
2023-04-13T21:13:33.955Z,99122.98
2023-04-13T21:16:02.064Z,99120.66
2023-04-13T21:18:34.150Z,99121.46
2023-04-13T21:21:08.407Z,99125.42
2023-04-13T21:23:37.541Z,99126.23
2023-04-13T21:26:07.034Z,99128.61
2023-04-13T21:28:35.724Z,99126.84
2023-04-13T21:31:03.770Z,99126.20
2023-04-13T21:33:33.610Z,99124.25
2023-04-13T21:38:32.989Z,99121.64
2023-04-13T21:41:01.023Z,99118.89
2023-04-13T21:43:29.340Z,99123.50
2023-04-13T21:45:59.501Z,99123.27
2023-04-13T21:48:28.314Z,99122.28
2023-04-13T21:50:57.810Z,99121.52
2023-04-13T21:53:26.164Z,99120.89
2023-04-13T21:55:54.433Z,99119.54
2023-04-13T21:58:23.516Z,99122.42
2023-04-13T22:00:52.410Z,99117.53
2023-04-13T22:03:21.626Z,99117.83
2023-04-13T22:05:49.866Z,99114.38
2023-04-13T22:08:19.587Z,99114.19
2023-04-13T22:10:48.860Z,99113.95
2023-04-13T22:13:16.930Z,99110.84
2023-04-13T22:15:47.057Z,99116.60
2023-04-13T22:18:15.619Z,99114.10
2023-04-13T22:20:44.928Z,99112.51
2023-04-13T22:23:14.731Z,99113.84
2023-04-13T22:25:42.962Z,99114.72
2023-04-13T22:28:11.665Z,99116.79
2023-04-13T22:30:40.062Z,99113.45
2023-04-13T22:33:10.200Z,99120.49
2023-04-13T22:35:38.157Z,99117.27
2023-04-13T22:38:06.872Z,99121.91
2023-04-13T22:40:39.154Z,99117.37
2023-04-13T22:43:07.497Z,99121.54
2023-04-13T22:45:37.215Z,99122.27
2023-04-13T22:48:06.014Z,99118.68
2023-04-13T22:50:36.873Z,99121.96
2023-04-13T22:53:08.230Z,99122.34
2023-04-13T22:55:37.081Z,99117.97
2023-04-13T22:58:05.155Z,99117.46
2023-04-13T23:00:35.237Z,99120.67
2023-04-13T23:03:16.156Z,99124.20
2023-04-13T23:05:45.531Z,99127.34
2023-04-13T23:08:13.775Z,99128.66
2023-04-13T23:10:42.398Z,99129.25
2023-04-13T23:13:10.488Z,99132.71
2023-04-13T23:15:39.552Z,99129.72
2023-04-13T23:18:07.834Z,99130.73
2023-04-13T23:20:36.065Z,99128.88
2023-04-13T23:23:04.319Z,99127.88
2023-04-13T23:25:32.795Z,99125.83
2023-04-13T23:28:00.922Z,99128.77
2023-04-13T23:30:29.084Z,99126.95
2023-04-13T23:32:58.741Z,99127.38
2023-04-13T23:35:26.840Z,99129.27
2023-04-13T23:37:54.973Z,99132.09
2023-04-13T23:40:23.126Z,99132.92
2023-04-13T23:42:51.684Z,99132.45
2023-04-13T23:45:20.056Z,99133.25
2023-04-13T23:47:48.983Z,99133.36
2023-04-13T23:50:18.035Z,99136.06
2023-04-13T23:52:46.688Z,99140.05
2023-04-13T23:55:14.820Z,99147.64
2023-04-13T23:57:44.622Z,99148.37
